sensor_id;sensor_type;location;lat;lon;timestamp;temperature;humidity
21928;DHT22;11128;51.096;17.190;2023-08-07T00:00:23;15.50;99.90
21928;DHT22;11128;51.096;17.190;2023-08-07T00:05:25;15.50;99.90
21928;DHT22;11128;51.096;17.190;2023-08-07T00:10:26;15.50;99.90
21928;DHT22;11128;51.096;17.190;2023-08-07T00:15:28;15.50;99.90
21928;DHT22;11128;51.096;17.190;2023-08-07T00:20:29;15.50;99.90
21928;DHT22;11128;51.096;17.190;2023-08-07T00:25:30;15.40;99.90
21928;DHT22;11128;51.096;17.190;2023-08-07T00:30:32;15.40;99.90
21928;DHT22;11128;51.096;17.190;2023-08-07T00:35:33;15.40;99.90
21928;DHT22;11128;51.096;17.190;2023-08-07T00:40:39;15.40;99.90
21928;DHT22;11128;51.096;17.190;2023-08-07T00:45:43;15.40;99.90
21928;DHT22;11128;51.096;17.190;2023-08-07T00:50:45;15.30;99.90
21928;DHT22;11128;51.096;17.190;2023-08-07T00:55:47;15.40;99.90
21928;DHT22;11128;51.096;17.190;2023-08-07T01:00:49;15.40;1.00
21928;DHT22;11128;51.096;17.190;2023-08-07T01:05:50;15.40;1.00
21928;DHT22;11128;51.096;17.190;2023-08-07T01:21:37;15.30;1.00
21928;DHT22;11128;51.096;17.190;2023-08-07T01:26:39;15.40;1.00
21928;DHT22;11128;51.096;17.190;2023-08-07T01:31:42;15.30;1.00
21928;DHT22;11128;51.096;17.190;2023-08-07T01:36:46;15.40;1.00
21928;DHT22;11128;51.096;17.190;2023-08-07T01:41:50;15.40;1.00
21928;DHT22;11128;51.096;17.190;2023-08-07T01:46:51;15.40;1.00
21928;DHT22;11128;51.096;17.190;2023-08-07T01:51:53;15.40;1.00
21928;DHT22;11128;51.096;17.190;2023-08-07T01:56:54;15.40;1.00
21928;DHT22;11128;51.096;17.190;2023-08-07T02:01:55;15.30;1.00
21928;DHT22;11128;51.096;17.190;2023-08-07T02:06:57;15.40;1.00
21928;DHT22;11128;51.096;17.190;2023-08-07T02:11:58;15.30;1.00
21928;DHT22;11128;51.096;17.190;2023-08-07T02:16:59;15.30;1.00
21928;DHT22;11128;51.096;17.190;2023-08-07T02:22:02;15.30;1.00
21928;DHT22;11128;51.096;17.190;2023-08-07T02:27:03;15.30;99.90
21928;DHT22;11128;51.096;17.190;2023-08-07T02:32:05;15.30;99.90
21928;DHT22;11128;51.096;17.190;2023-08-07T02:37:06;15.30;99.90
21928;DHT22;11128;51.096;17.190;2023-08-07T02:42:07;15.30;99.90
21928;DHT22;11128;51.096;17.190;2023-08-07T02:47:08;15.40;99.90
21928;DHT22;11128;51.096;17.190;2023-08-07T02:52:09;15.30;99.90
21928;DHT22;11128;51.096;17.190;2023-08-07T02:57:11;15.30;99.90
21928;DHT22;11128;51.096;17.190;2023-08-07T03:02:12;15.20;1.00
21928;DHT22;11128;51.096;17.190;2023-08-07T03:07:13;15.30;99.90
21928;DHT22;11128;51.096;17.190;2023-08-07T03:12:14;15.30;1.00
21928;DHT22;11128;51.096;17.190;2023-08-07T03:17:15;15.30;1.00
21928;DHT22;11128;51.096;17.190;2023-08-07T03:22:17;15.30;1.00
21928;DHT22;11128;51.096;17.190;2023-08-07T03:27:18;15.30;1.00
21928;DHT22;11128;51.096;17.190;2023-08-07T03:32:19;15.30;1.00
21928;DHT22;11128;51.096;17.190;2023-08-07T03:37:21;15.30;1.00
21928;DHT22;11128;51.096;17.190;2023-08-07T03:42:22;15.30;1.00
21928;DHT22;11128;51.096;17.190;2023-08-07T03:47:23;15.30;1.00
21928;DHT22;11128;51.096;17.190;2023-08-07T03:52:25;15.30;1.00
21928;DHT22;11128;51.096;17.190;2023-08-07T03:57:26;15.30;1.00
21928;DHT22;11128;51.096;17.190;2023-08-07T04:02:28;15.20;1.00
21928;DHT22;11128;51.096;17.190;2023-08-07T04:07:30;15.20;98.20
21928;DHT22;11128;51.096;17.190;2023-08-07T04:12:31;15.30;14.50
21928;DHT22;11128;51.096;17.190;2023-08-07T04:17:33;15.30;1.00
21928;DHT22;11128;51.096;17.190;2023-08-07T04:22:34;15.30;99.90
21928;DHT22;11128;51.096;17.190;2023-08-07T04:27:35;15.40;99.90
21928;DHT22;11128;51.096;17.190;2023-08-07T04:32:37;15.40;99.90
21928;DHT22;11128;51.096;17.190;2023-08-07T04:37:38;15.40;99.90
21928;DHT22;11128;51.096;17.190;2023-08-07T04:42:42;15.40;99.90
21928;DHT22;11128;51.096;17.190;2023-08-07T04:47:43;15.40;1.00
21928;DHT22;11128;51.096;17.190;2023-08-07T04:52:45;15.40;99.90
21928;DHT22;11128;51.096;17.190;2023-08-07T04:57:46;15.40;1.00
21928;DHT22;11128;51.096;17.190;2023-08-07T05:02:48;15.40;99.90
21928;DHT22;11128;51.096;17.190;2023-08-07T05:07:49;15.30;99.90
21928;DHT22;11128;51.096;17.190;2023-08-07T05:12:50;15.30;1.00
21928;DHT22;11128;51.096;17.190;2023-08-07T05:17:58;15.40;99.90
21928;DHT22;11128;51.096;17.190;2023-08-07T05:22:59;15.40;99.90
21928;DHT22;11128;51.096;17.190;2023-08-07T05:28:00;15.40;73.00
21928;DHT22;11128;51.096;17.190;2023-08-07T05:33:02;15.40;99.90
21928;DHT22;11128;51.096;17.190;2023-08-07T05:38:03;15.50;82.50
21928;DHT22;11128;51.096;17.190;2023-08-07T05:43:05;15.50;99.90
21928;DHT22;11128;51.096;17.190;2023-08-07T05:48:06;15.50;9.00
21928;DHT22;11128;51.096;17.190;2023-08-07T05:53:08;15.50;1.00
21928;DHT22;11128;51.096;17.190;2023-08-07T05:58:09;15.50;1.00
21928;DHT22;11128;51.096;17.190;2023-08-07T06:03:11;15.60;1.00
21928;DHT22;11128;51.096;17.190;2023-08-07T06:08:13;15.50;1.00
21928;DHT22;11128;51.096;17.190;2023-08-07T06:13:14;15.60;1.00
21928;DHT22;11128;51.096;17.190;2023-08-07T06:18:15;15.60;1.00
21928;DHT22;11128;51.096;17.190;2023-08-07T06:23:17;15.60;11.70
21928;DHT22;11128;51.096;17.190;2023-08-07T06:28:18;15.60;1.00
21928;DHT22;11128;51.096;17.190;2023-08-07T06:33:20;15.60;99.90
21928;DHT22;11128;51.096;17.190;2023-08-07T06:38:21;15.60;3.70
21928;DHT22;11128;51.096;17.190;2023-08-07T06:43:22;15.60;1.00
21928;DHT22;11128;51.096;17.190;2023-08-07T06:48:24;15.60;1.00
21928;DHT22;11128;51.096;17.190;2023-08-07T06:53:25;15.60;1.00
21928;DHT22;11128;51.096;17.190;2023-08-07T06:58:27;15.60;98.60
21928;DHT22;11128;51.096;17.190;2023-08-07T07:03:28;15.60;32.90
21928;DHT22;11128;51.096;17.190;2023-08-07T07:08:29;15.60;1.00
21928;DHT22;11128;51.096;17.190;2023-08-07T07:13:31;15.60;36.30
21928;DHT22;11128;51.096;17.190;2023-08-07T07:18:32;15.60;99.90
21928;DHT22;11128;51.096;17.190;2023-08-07T07:23:33;15.60;99.90
21928;DHT22;11128;51.096;17.190;2023-08-07T07:28:35;15.70;1.00
21928;DHT22;11128;51.096;17.190;2023-08-07T07:33:36;15.70;1.00
21928;DHT22;11128;51.096;17.190;2023-08-07T07:38:37;15.80;1.00
21928;DHT22;11128;51.096;17.190;2023-08-07T07:43:38;15.90;1.00
21928;DHT22;11128;51.096;17.190;2023-08-07T07:48:40;16.00;1.00
21928;DHT22;11128;51.096;17.190;2023-08-07T07:53:41;16.10;1.00
21928;DHT22;11128;51.096;17.190;2023-08-07T07:58:42;16.10;1.00
21928;DHT22;11128;51.096;17.190;2023-08-07T08:03:45;16.30;1.00
21928;DHT22;11128;51.096;17.190;2023-08-07T08:08:46;16.50;99.90
21928;DHT22;11128;51.096;17.190;2023-08-07T08:13:48;16.70;1.00
21928;DHT22;11128;51.096;17.190;2023-08-07T08:18:49;17.00;1.00
21928;DHT22;11128;51.096;17.190;2023-08-07T08:23:50;17.20;35.70
21928;DHT22;11128;51.096;17.190;2023-08-07T08:28:51;17.40;1.00
21928;DHT22;11128;51.096;17.190;2023-08-07T08:33:53;17.60;1.00
21928;DHT22;11128;51.096;17.190;2023-08-07T08:38:54;17.70;1.00
21928;DHT22;11128;51.096;17.190;2023-08-07T08:43:56;17.70;79.30
21928;DHT22;11128;51.096;17.190;2023-08-07T08:48:58;17.80;99.90
21928;DHT22;11128;51.096;17.190;2023-08-07T08:54:01;17.90;1.00
21928;DHT22;11128;51.096;17.190;2023-08-07T08:59:03;17.70;1.00
21928;DHT22;11128;51.096;17.190;2023-08-07T09:04:05;17.60;1.00
21928;DHT22;11128;51.096;17.190;2023-08-07T09:09:08;17.80;99.90
21928;DHT22;11128;51.096;17.190;2023-08-07T09:14:27;17.90;1.00
21928;DHT22;11128;51.096;17.190;2023-08-07T09:19:32;18.00;1.00
21928;DHT22;11128;51.096;17.190;2023-08-07T09:24:34;18.00;1.00
21928;DHT22;11128;51.096;17.190;2023-08-07T09:29:35;18.10;99.90
21928;DHT22;11128;51.096;17.190;2023-08-07T09:34:40;18.50;99.90
21928;DHT22;11128;51.096;17.190;2023-08-07T09:39:42;18.90;93.80
21928;DHT22;11128;51.096;17.190;2023-08-07T09:44:44;19.10;1.00
21928;DHT22;11128;51.096;17.190;2023-08-07T09:49:54;19.00;1.00
21928;DHT22;11128;51.096;17.190;2023-08-07T09:54:56;18.90;1.00
21928;DHT22;11128;51.096;17.190;2023-08-07T10:00:00;19.30;1.00
21928;DHT22;11128;51.096;17.190;2023-08-07T10:05:01;19.70;1.00
21928;DHT22;11128;51.096;17.190;2023-08-07T10:10:06;19.90;1.00
21928;DHT22;11128;51.096;17.190;2023-08-07T10:15:08;19.70;99.90
21928;DHT22;11128;51.096;17.190;2023-08-07T10:20:11;19.90;99.90
21928;DHT22;11128;51.096;17.190;2023-08-07T10:25:13;20.30;99.90
21928;DHT22;11128;51.096;17.190;2023-08-07T10:30:18;20.40;99.90
21928;DHT22;11128;51.096;17.190;2023-08-07T10:35:24;20.40;99.90
21928;DHT22;11128;51.096;17.190;2023-08-07T10:40:26;20.70;99.90
21928;DHT22;11128;51.096;17.190;2023-08-07T10:45:28;20.80;99.90
21928;DHT22;11128;51.096;17.190;2023-08-07T10:50:31;20.90;99.90
21928;DHT22;11128;51.096;17.190;2023-08-07T10:55:46;21.30;99.90
21928;DHT22;11128;51.096;17.190;2023-08-07T11:00:48;21.90;99.90
21928;DHT22;11128;51.096;17.190;2023-08-07T11:05:51;21.80;95.30
21928;DHT22;11128;51.096;17.190;2023-08-07T11:10:53;21.70;99.90
21928;DHT22;11128;51.096;17.190;2023-08-07T11:15:56;21.80;63.00
21928;DHT22;11128;51.096;17.190;2023-08-07T11:20:58;22.20;52.00
21928;DHT22;11128;51.096;17.190;2023-08-07T11:26:00;22.50;20.40
21928;DHT22;11128;51.096;17.190;2023-08-07T11:31:01;22.20;15.00
21928;DHT22;11128;51.096;17.190;2023-08-07T11:36:03;21.80;21.80
21928;DHT22;11128;51.096;17.190;2023-08-07T11:41:12;21.20;39.30
21928;DHT22;11128;51.096;17.190;2023-08-07T11:46:15;20.90;81.50
21928;DHT22;11128;51.096;17.190;2023-08-07T11:51:17;20.60;99.90
21928;DHT22;11128;51.096;17.190;2023-08-07T11:56:21;20.40;99.90
21928;DHT22;11128;51.096;17.190;2023-08-07T12:01:24;20.40;99.90
21928;DHT22;11128;51.096;17.190;2023-08-07T12:06:27;20.40;99.90
21928;DHT22;11128;51.096;17.190;2023-08-07T12:11:29;20.40;99.90
21928;DHT22;11128;51.096;17.190;2023-08-07T12:16:37;20.60;99.90
21928;DHT22;11128;51.096;17.190;2023-08-07T12:21:39;20.90;99.90
21928;DHT22;11128;51.096;17.190;2023-08-07T12:26:40;21.00;76.10
21928;DHT22;11128;51.096;17.190;2023-08-07T12:31:42;20.90;80.70
21928;DHT22;11128;51.096;17.190;2023-08-07T12:37:02;20.80;99.90
21928;DHT22;11128;51.096;17.190;2023-08-07T12:42:04;20.40;99.90
21928;DHT22;11128;51.096;17.190;2023-08-07T12:47:06;20.30;99.90
21928;DHT22;11128;51.096;17.190;2023-08-07T12:52:08;20.40;99.90
21928;DHT22;11128;51.096;17.190;2023-08-07T12:57:09;20.50;99.90
21928;DHT22;11128;51.096;17.190;2023-08-07T13:02:10;20.70;99.90
21928;DHT22;11128;51.096;17.190;2023-08-07T13:07:12;20.90;99.90
21928;DHT22;11128;51.096;17.190;2023-08-07T13:12:13;21.20;96.80
21928;DHT22;11128;51.096;17.190;2023-08-07T13:17:15;21.20;61.70
21928;DHT22;11128;51.096;17.190;2023-08-07T13:22:16;21.20;57.90
21928;DHT22;11128;51.096;17.190;2023-08-07T13:27:17;21.00;66.60
21928;DHT22;11128;51.096;17.190;2023-08-07T13:32:18;20.70;70.90
21928;DHT22;11128;51.096;17.190;2023-08-07T13:37:21;20.50;99.90
21928;DHT22;11128;51.096;17.190;2023-08-07T13:42:26;20.50;99.90
21928;DHT22;11128;51.096;17.190;2023-08-07T13:47:28;20.60;99.90
21928;DHT22;11128;51.096;17.190;2023-08-07T13:52:30;20.60;99.90
21928;DHT22;11128;51.096;17.190;2023-08-07T13:57:31;20.40;99.90
21928;DHT22;11128;51.096;17.190;2023-08-07T14:02:34;20.30;99.90
21928;DHT22;11128;51.096;17.190;2023-08-07T14:07:36;20.40;99.90
21928;DHT22;11128;51.096;17.190;2023-08-07T14:12:37;20.50;99.90
21928;DHT22;11128;51.096;17.190;2023-08-07T14:17:38;20.50;99.90
21928;DHT22;11128;51.096;17.190;2023-08-07T14:22:40;20.60;99.90
21928;DHT22;11128;51.096;17.190;2023-08-07T14:27:43;20.60;99.90
21928;DHT22;11128;51.096;17.190;2023-08-07T14:32:44;20.50;99.90
21928;DHT22;11128;51.096;17.190;2023-08-07T14:37:48;20.40;99.90
21928;DHT22;11128;51.096;17.190;2023-08-07T14:42:49;20.20;99.90
21928;DHT22;11128;51.096;17.190;2023-08-07T14:47:50;19.90;99.90
21928;DHT22;11128;51.096;17.190;2023-08-07T14:52:52;19.70;1.00
21928;DHT22;11128;51.096;17.190;2023-08-07T14:57:53;19.80;1.00
21928;DHT22;11128;51.096;17.190;2023-08-07T15:02:57;19.90;1.00
21928;DHT22;11128;51.096;17.190;2023-08-07T15:08:01;20.00;99.90
21928;DHT22;11128;51.096;17.190;2023-08-07T15:13:03;20.00;1.00
21928;DHT22;11128;51.096;17.190;2023-08-07T15:18:04;20.10;99.90
21928;DHT22;11128;51.096;17.190;2023-08-07T15:23:06;20.10;99.90
21928;DHT22;11128;51.096;17.190;2023-08-07T15:28:07;20.10;99.90
21928;DHT22;11128;51.096;17.190;2023-08-07T15:33:09;20.00;99.90
21928;DHT22;11128;51.096;17.190;2023-08-07T15:38:10;19.90;99.90
21928;DHT22;11128;51.096;17.190;2023-08-07T15:43:12;19.80;99.90
21928;DHT22;11128;51.096;17.190;2023-08-07T15:48:13;19.70;99.90
21928;DHT22;11128;51.096;17.190;2023-08-07T15:53:14;19.70;99.90
21928;DHT22;11128;51.096;17.190;2023-08-07T15:58:16;19.60;99.90
21928;DHT22;11128;51.096;17.190;2023-08-07T16:03:19;19.50;99.90
21928;DHT22;11128;51.096;17.190;2023-08-07T16:08:23;19.50;99.90
21928;DHT22;11128;51.096;17.190;2023-08-07T16:13:24;19.40;99.90
21928;DHT22;11128;51.096;17.190;2023-08-07T16:18:26;19.40;99.90
21928;DHT22;11128;51.096;17.190;2023-08-07T16:23:27;19.40;99.90
21928;DHT22;11128;51.096;17.190;2023-08-07T16:28:29;19.40;99.90
21928;DHT22;11128;51.096;17.190;2023-08-07T16:33:30;19.40;99.90
21928;DHT22;11128;51.096;17.190;2023-08-07T16:38:31;19.40;99.90
21928;DHT22;11128;51.096;17.190;2023-08-07T16:43:33;19.30;99.90
21928;DHT22;11128;51.096;17.190;2023-08-07T16:48:34;19.30;99.90
21928;DHT22;11128;51.096;17.190;2023-08-07T16:53:36;19.20;99.90
21928;DHT22;11128;51.096;17.190;2023-08-07T16:58:37;19.20;99.90
21928;DHT22;11128;51.096;17.190;2023-08-07T17:03:40;19.00;99.90
21928;DHT22;11128;51.096;17.190;2023-08-07T17:08:42;18.90;99.90
21928;DHT22;11128;51.096;17.190;2023-08-07T17:13:44;18.80;99.90
21928;DHT22;11128;51.096;17.190;2023-08-07T17:18:46;18.70;99.90
21928;DHT22;11128;51.096;17.190;2023-08-07T17:23:48;18.70;1.00
21928;DHT22;11128;51.096;17.190;2023-08-07T17:28:50;18.60;1.00
21928;DHT22;11128;51.096;17.190;2023-08-07T17:33:57;18.60;1.00
21928;DHT22;11128;51.096;17.190;2023-08-07T17:38:59;18.50;1.00
21928;DHT22;11128;51.096;17.190;2023-08-07T17:44:00;18.50;1.00
21928;DHT22;11128;51.096;17.190;2023-08-07T17:49:02;18.50;1.00
21928;DHT22;11128;51.096;17.190;2023-08-07T17:54:03;18.40;1.00
21928;DHT22;11128;51.096;17.190;2023-08-07T17:59:04;18.40;1.00
21928;DHT22;11128;51.096;17.190;2023-08-07T18:04:06;18.30;1.00
21928;DHT22;11128;51.096;17.190;2023-08-07T18:09:08;18.30;1.00
21928;DHT22;11128;51.096;17.190;2023-08-07T18:14:09;18.20;1.00
21928;DHT22;11128;51.096;17.190;2023-08-07T18:19:11;18.20;1.00
21928;DHT22;11128;51.096;17.190;2023-08-07T18:24:14;18.20;1.00
21928;DHT22;11128;51.096;17.190;2023-08-07T18:29:15;18.10;1.00
21928;DHT22;11128;51.096;17.190;2023-08-07T18:34:17;18.10;1.00
21928;DHT22;11128;51.096;17.190;2023-08-07T18:39:18;18.00;1.00
21928;DHT22;11128;51.096;17.190;2023-08-07T18:44:20;18.00;1.00
21928;DHT22;11128;51.096;17.190;2023-08-07T18:49:21;18.00;1.00
21928;DHT22;11128;51.096;17.190;2023-08-07T18:54:23;18.00;1.00
21928;DHT22;11128;51.096;17.190;2023-08-07T18:59:25;17.90;1.00
21928;DHT22;11128;51.096;17.190;2023-08-07T19:04:27;17.80;1.00
21928;DHT22;11128;51.096;17.190;2023-08-07T19:09:28;17.80;1.00
21928;DHT22;11128;51.096;17.190;2023-08-07T19:14:30;17.80;1.00
21928;DHT22;11128;51.096;17.190;2023-08-07T19:19:31;17.70;1.00
21928;DHT22;11128;51.096;17.190;2023-08-07T19:24:33;17.70;1.00
21928;DHT22;11128;51.096;17.190;2023-08-07T19:29:34;17.60;1.00
21928;DHT22;11128;51.096;17.190;2023-08-07T19:34:36;17.60;1.00
21928;DHT22;11128;51.096;17.190;2023-08-07T19:39:37;17.60;1.00
21928;DHT22;11128;51.096;17.190;2023-08-07T19:44:39;17.50;1.00
21928;DHT22;11128;51.096;17.190;2023-08-07T19:49:43;17.50;1.00
21928;DHT22;11128;51.096;17.190;2023-08-07T19:54:44;17.50;1.00
21928;DHT22;11128;51.096;17.190;2023-08-07T19:59:46;17.50;1.00
21928;DHT22;11128;51.096;17.190;2023-08-07T20:04:50;17.50;1.00
21928;DHT22;11128;51.096;17.190;2023-08-07T20:09:51;17.40;1.00
21928;DHT22;11128;51.096;17.190;2023-08-07T20:14:53;17.40;1.00
21928;DHT22;11128;51.096;17.190;2023-08-07T20:19:54;17.40;1.00
21928;DHT22;11128;51.096;17.190;2023-08-07T20:24:55;17.40;1.00
21928;DHT22;11128;51.096;17.190;2023-08-07T20:29:57;17.30;1.00
21928;DHT22;11128;51.096;17.190;2023-08-07T20:34:58;17.20;1.00
21928;DHT22;11128;51.096;17.190;2023-08-07T20:40:00;17.20;1.00
21928;DHT22;11128;51.096;17.190;2023-08-07T20:45:01;17.10;1.00
21928;DHT22;11128;51.096;17.190;2023-08-07T20:50:03;17.10;1.00
21928;DHT22;11128;51.096;17.190;2023-08-07T20:55:04;17.10;1.00
21928;DHT22;11128;51.096;17.190;2023-08-07T21:00:07;17.00;1.00
21928;DHT22;11128;51.096;17.190;2023-08-07T21:05:10;16.90;1.00
21928;DHT22;11128;51.096;17.190;2023-08-07T21:10:11;16.80;1.00
21928;DHT22;11128;51.096;17.190;2023-08-07T21:15:12;16.80;1.00
21928;DHT22;11128;51.096;17.190;2023-08-07T21:20:14;16.70;1.00
21928;DHT22;11128;51.096;17.190;2023-08-07T21:25:15;16.70;1.00
21928;DHT22;11128;51.096;17.190;2023-08-07T21:30:17;16.70;1.00
21928;DHT22;11128;51.096;17.190;2023-08-07T21:35:18;16.60;1.00
21928;DHT22;11128;51.096;17.190;2023-08-07T21:40:19;16.60;1.00
21928;DHT22;11128;51.096;17.190;2023-08-07T21:45:21;16.50;1.00
21928;DHT22;11128;51.096;17.190;2023-08-07T21:50:22;16.40;1.00
21928;DHT22;11128;51.096;17.190;2023-08-07T21:55:23;16.40;1.00
21928;DHT22;11128;51.096;17.190;2023-08-07T22:00:26;16.30;1.00
21928;DHT22;11128;51.096;17.190;2023-08-07T22:05:27;16.30;1.00
21928;DHT22;11128;51.096;17.190;2023-08-07T22:10:28;16.30;1.00
21928;DHT22;11128;51.096;17.190;2023-08-07T22:15:30;16.20;1.00
21928;DHT22;11128;51.096;17.190;2023-08-07T22:20:33;16.20;1.00
21928;DHT22;11128;51.096;17.190;2023-08-07T22:25:35;16.10;1.00
21928;DHT22;11128;51.096;17.190;2023-08-07T22:30:36;16.10;1.00
21928;DHT22;11128;51.096;17.190;2023-08-07T22:35:38;16.10;1.00
21928;DHT22;11128;51.096;17.190;2023-08-07T22:40:39;16.00;1.00
21928;DHT22;11128;51.096;17.190;2023-08-07T22:50:43;16.00;1.00
21928;DHT22;11128;51.096;17.190;2023-08-07T22:55:48;15.90;1.00
21928;DHT22;11128;51.096;17.190;2023-08-07T23:00:50;15.90;1.00
21928;DHT22;11128;51.096;17.190;2023-08-07T23:05:52;15.90;1.00
21928;DHT22;11128;51.096;17.190;2023-08-07T23:10:53;15.80;1.00
21928;DHT22;11128;51.096;17.190;2023-08-07T23:15:54;15.80;1.00
21928;DHT22;11128;51.096;17.190;2023-08-07T23:20:58;15.80;1.00
21928;DHT22;11128;51.096;17.190;2023-08-07T23:25:59;15.70;1.00
21928;DHT22;11128;51.096;17.190;2023-08-07T23:31:00;15.70;1.00
21928;DHT22;11128;51.096;17.190;2023-08-07T23:36:02;15.70;1.00
21928;DHT22;11128;51.096;17.190;2023-08-07T23:41:03;15.70;1.00
21928;DHT22;11128;51.096;17.190;2023-08-07T23:46:05;15.70;1.00
21928;DHT22;11128;51.096;17.190;2023-08-07T23:51:06;15.60;1.00
21928;DHT22;11128;51.096;17.190;2023-08-07T23:56:07;15.60;1.00
